Weather at Tignes Airfield

Public forecast

Using degrees Celsius for public forecast. Weather courtesy of forecast.io.

Closest aviation weather report (METAR) to Tignes Airfield

Closest report is Aviano Air Base, 12.7 nm (23.5 km) SE.

2024/07/17 17:55 (retrieved 58 minutes ago)

LIPA 171755Z 35006KT 9999 FEW050 31/22 Q1014 RMK SCT VIS MIN 9999 WIND THR05 /////KT WIND THR23 /////KT A2995 BLU

Closest aviation forecast (TAF) to Tignes Airfield

Closest forecast is Treviso Antonio Canova Airport, 31.0 nm (57.5 km) SSW.

2024/07/17 18:21 (retrieved 32 minutes ago)

TAF LIPH 171700Z 1718/1818 03006KT 9999 FEW060